General Aviation Weather

Text Reports

Enter one or more of the following location identifiers separated by a space:

Zip Code, Four-Character ICAO or Three-Character IATA airport codes.

METAR - Aviation Routine Weather Report
KDNS - Denison, Iowa
Updated at 3:35 AM GMT on July 23, 2014 (10:35 PM CDT):
METAR KDNS 230335Z AUTO 02006KT 10SM CLR 22/18 A3015 RMK AO2
TAF - Terminal Area Forecast
KDNS - Denison, Iowa
Updated at 3:35 AM GMT on July 23, 2014 (10:35 PM CDT):
No TAF is currently available for this location.
Decoded:
No decoded TAF is available.
PIREP - Pilot Weather Report
KDNS - Denison, Iowa
Updated at 3:35 AM GMT on July 23, 2014 (10:35 PM CDT):
No PIREP is currently available for this location.
AIRMET - Airmens Meteorological Information
KDNS - Denison, Iowa
Updated at 3:35 AM GMT on July 23, 2014 (10:35 PM CDT):
No AIRMET is currently available for this location.
SIGMET - Significant Meteorological Information
KDNS - Denison, Iowa
Updated at 3:35 AM GMT on July 23, 2014 (10:35 PM CDT):
No SIGMET is currently available for this location.
NOTAM - Notice to Airmen
KDNS - Denison, Iowa
Updated at 3:35 AM GMT on July 23, 2014 (10:35 PM CDT):
No NOTAM is currently available for this location.
Forecast Area
KDNS - Denison, Iowa
Updated at 3:35 AM GMT on July 23, 2014 (10:35 PM CDT):
No NOTAM is currently available for this location.
Aviation Weather Maps